sensor_id;sensor_type;location;lat;lon;timestamp;P1;durP1;ratioP1;P2;durP2;ratioP2
35745;SDS011;21870;42.812;74.628;2023-03-21T00:01:55;28.30;;;25.13;;
35745;SDS011;21870;42.812;74.628;2023-03-21T00:04:23;36.65;;;26.08;;
35745;SDS011;21870;42.812;74.628;2023-03-21T00:06:50;29.52;;;23.80;;
35745;SDS011;21870;42.812;74.628;2023-03-21T00:09:16;28.38;;;24.73;;
35745;SDS011;21870;42.812;74.628;2023-03-21T00:11:43;28.15;;;23.10;;
35745;SDS011;21870;42.812;74.628;2023-03-21T00:14:09;28.05;;;23.60;;
35745;SDS011;21870;42.812;74.628;2023-03-21T00:16:39;31.92;;;24.67;;
35745;SDS011;21870;42.812;74.628;2023-03-21T00:19:05;28.02;;;24.13;;
35745;SDS011;21870;42.812;74.628;2023-03-21T00:21:33;29.83;;;25.02;;
35745;SDS011;21870;42.812;74.628;2023-03-21T00:24:03;33.20;;;26.17;;
35745;SDS011;21870;42.812;74.628;2023-03-21T00:26:31;28.48;;;23.85;;
35745;SDS011;21870;42.812;74.628;2023-03-21T00:28:57;29.92;;;25.40;;
35745;SDS011;21870;42.812;74.628;2023-03-21T00:31:23;30.08;;;24.95;;
35745;SDS011;21870;42.812;74.628;2023-03-21T00:33:49;28.27;;;24.67;;
35745;SDS011;21870;42.812;74.628;2023-03-21T00:36:15;33.05;;;25.33;;
35745;SDS011;21870;42.812;74.628;2023-03-21T00:38:42;36.75;;;27.33;;
35745;SDS011;21870;42.812;74.628;2023-03-21T00:41:09;27.48;;;24.55;;
35745;SDS011;21870;42.812;74.628;2023-03-21T00:43:38;35.28;;;26.42;;
35745;SDS011;21870;42.812;74.628;2023-03-21T00:46:04;28.95;;;23.95;;
35745;SDS011;21870;42.812;74.628;2023-03-21T00:48:31;28.45;;;25.40;;
35745;SDS011;21870;42.812;74.628;2023-03-21T00:50:57;32.20;;;24.52;;
35745;SDS011;21870;42.812;74.628;2023-03-21T00:53:24;28.75;;;24.40;;
35745;SDS011;21870;42.812;74.628;2023-03-21T00:55:51;34.35;;;25.90;;
35745;SDS011;21870;42.812;74.628;2023-03-21T00:58:17;32.97;;;26.20;;
35745;SDS011;21870;42.812;74.628;2023-03-21T01:00:44;37.30;;;25.08;;
35745;SDS011;21870;42.812;74.628;2023-03-21T01:03:13;31.35;;;24.23;;
35745;SDS011;21870;42.812;74.628;2023-03-21T01:05:41;26.17;;;22.42;;
35745;SDS011;21870;42.812;74.628;2023-03-21T01:08:28;29.02;;;23.60;;
35745;SDS011;21870;42.812;74.628;2023-03-21T01:10:54;29.17;;;24.95;;
35745;SDS011;21870;42.812;74.628;2023-03-21T01:13:21;31.65;;;24.92;;
35745;SDS011;21870;42.812;74.628;2023-03-21T01:15:50;28.75;;;25.67;;
35745;SDS011;21870;42.812;74.628;2023-03-21T01:18:19;32.47;;;27.45;;
35745;SDS011;21870;42.812;74.628;2023-03-21T01:20:49;39.33;;;34.35;;
35745;SDS011;21870;42.812;74.628;2023-03-21T01:23:15;36.50;;;30.42;;
35745;SDS011;21870;42.812;74.628;2023-03-21T01:25:41;53.05;;;47.53;;
35745;SDS011;21870;42.812;74.628;2023-03-21T01:28:08;35.90;;;32.10;;
35745;SDS011;21870;42.812;74.628;2023-03-21T01:30:35;30.48;;;26.77;;
35745;SDS011;21870;42.812;74.628;2023-03-21T01:33:01;38.33;;;27.15;;
35745;SDS011;21870;42.812;74.628;2023-03-21T01:35:27;41.92;;;33.65;;
35745;SDS011;21870;42.812;74.628;2023-03-21T01:37:53;35.33;;;31.52;;
35745;SDS011;21870;42.812;74.628;2023-03-21T01:40:20;31.88;;;26.80;;
35745;SDS011;21870;42.812;74.628;2023-03-21T01:42:48;33.97;;;27.70;;
35745;SDS011;21870;42.812;74.628;2023-03-21T01:48:18;33.65;;;28.92;;
35745;SDS011;21870;42.812;74.628;2023-03-21T01:50:47;31.00;;;26.60;;
35745;SDS011;21870;42.812;74.628;2023-03-21T01:53:14;35.80;;;29.25;;
35745;SDS011;21870;42.812;74.628;2023-03-21T01:55:42;43.03;;;35.10;;
35745;SDS011;21870;42.812;74.628;2023-03-21T01:58:08;40.25;;;34.72;;
35745;SDS011;21870;42.812;74.628;2023-03-21T02:00:36;41.53;;;34.88;;
35745;SDS011;21870;42.812;74.628;2023-03-21T02:03:04;37.58;;;33.17;;
35745;SDS011;21870;42.812;74.628;2023-03-21T02:05:51;32.90;;;27.25;;
35745;SDS011;21870;42.812;74.628;2023-03-21T02:08:25;31.75;;;27.27;;
35745;SDS011;21870;42.812;74.628;2023-03-21T02:10:54;37.17;;;27.60;;
35745;SDS011;21870;42.812;74.628;2023-03-21T02:13:20;30.45;;;26.02;;
35745;SDS011;21870;42.812;74.628;2023-03-21T02:15:57;28.42;;;25.45;;
35745;SDS011;21870;42.812;74.628;2023-03-21T02:29:43;36.05;;;31.55;;
35745;SDS011;21870;42.812;74.628;2023-03-21T02:37:48;43.67;;;31.23;;
35745;SDS011;21870;42.812;74.628;2023-03-21T02:40:38;36.28;;;30.92;;
35745;SDS011;21870;42.812;74.628;2023-03-21T02:43:14;39.60;;;30.17;;
35745;SDS011;21870;42.812;74.628;2023-03-21T02:46:03;39.92;;;30.67;;
35745;SDS011;21870;42.812;74.628;2023-03-21T02:48:36;39.05;;;29.50;;
35745;SDS011;21870;42.812;74.628;2023-03-21T02:51:06;40.85;;;31.17;;
35745;SDS011;21870;42.812;74.628;2023-03-21T02:53:36;41.17;;;32.25;;
35745;SDS011;21870;42.812;74.628;2023-03-21T02:56:05;36.60;;;30.90;;
35745;SDS011;21870;42.812;74.628;2023-03-21T02:58:34;44.10;;;30.58;;
35745;SDS011;21870;42.812;74.628;2023-03-21T03:01:03;43.50;;;32.53;;
35745;SDS011;21870;42.812;74.628;2023-03-21T03:03:31;42.72;;;32.30;;
35745;SDS011;21870;42.812;74.628;2023-03-21T03:06:03;37.25;;;31.35;;
35745;SDS011;21870;42.812;74.628;2023-03-21T03:12:10;35.63;;;29.27;;
35745;SDS011;21870;42.812;74.628;2023-03-21T03:14:56;31.02;;;27.48;;
35745;SDS011;21870;42.812;74.628;2023-03-21T03:17:46;31.52;;;26.42;;
35745;SDS011;21870;42.812;74.628;2023-03-21T03:34:23;29.25;;;25.60;;
35745;SDS011;21870;42.812;74.628;2023-03-21T03:36:54;39.47;;;27.30;;
35745;SDS011;21870;42.812;74.628;2023-03-21T03:39:32;29.40;;;24.90;;
35745;SDS011;21870;42.812;74.628;2023-03-21T03:42:22;30.92;;;26.50;;
35745;SDS011;21870;42.812;74.628;2023-03-21T03:44:52;33.95;;;26.63;;
35745;SDS011;21870;42.812;74.628;2023-03-21T03:50:11;40.25;;;29.80;;
35745;SDS011;21870;42.812;74.628;2023-03-21T03:52:45;39.90;;;31.13;;
35745;SDS011;21870;42.812;74.628;2023-03-21T03:55:24;33.63;;;27.42;;
35745;SDS011;21870;42.812;74.628;2023-03-21T03:57:53;37.35;;;29.88;;
35745;SDS011;21870;42.812;74.628;2023-03-21T04:00:20;35.25;;;28.23;;
35745;SDS011;21870;42.812;74.628;2023-03-21T04:02:46;30.05;;;26.73;;
35745;SDS011;21870;42.812;74.628;2023-03-21T04:05:12;36.05;;;26.20;;
35745;SDS011;21870;42.812;74.628;2023-03-21T04:07:38;37.95;;;25.63;;
35745;SDS011;21870;42.812;74.628;2023-03-21T04:10:05;33.75;;;25.13;;
35745;SDS011;21870;42.812;74.628;2023-03-21T04:12:32;31.58;;;25.80;;
35745;SDS011;21870;42.812;74.628;2023-03-21T04:14:58;40.40;;;26.70;;
35745;SDS011;21870;42.812;74.628;2023-03-21T04:17:24;42.72;;;27.40;;
35745;SDS011;21870;42.812;74.628;2023-03-21T04:19:50;42.38;;;25.73;;
35745;SDS011;21870;42.812;74.628;2023-03-21T04:22:16;43.47;;;25.90;;
35745;SDS011;21870;42.812;74.628;2023-03-21T04:24:42;49.17;;;28.02;;
35745;SDS011;21870;42.812;74.628;2023-03-21T04:27:08;47.53;;;29.30;;
35745;SDS011;21870;42.812;74.628;2023-03-21T04:29:35;66.53;;;31.40;;
35745;SDS011;21870;42.812;74.628;2023-03-21T04:32:01;57.78;;;28.08;;
35745;SDS011;21870;42.812;74.628;2023-03-21T04:34:27;70.57;;;29.75;;
35745;SDS011;21870;42.812;74.628;2023-03-21T04:36:53;51.42;;;26.27;;
35745;SDS011;21870;42.812;74.628;2023-03-21T04:39:20;53.13;;;29.75;;
35745;SDS011;21870;42.812;74.628;2023-03-21T04:41:47;60.20;;;28.48;;
35745;SDS011;21870;42.812;74.628;2023-03-21T04:44:14;63.75;;;28.00;;
35745;SDS011;21870;42.812;74.628;2023-03-21T04:46:41;44.63;;;22.40;;
35745;SDS011;21870;42.812;74.628;2023-03-21T04:49:07;56.55;;;26.67;;
35745;SDS011;21870;42.812;74.628;2023-03-21T04:51:34;53.45;;;26.42;;
35745;SDS011;21870;42.812;74.628;2023-03-21T04:54:01;42.97;;;26.10;;
35745;SDS011;21870;42.812;74.628;2023-03-21T04:56:27;58.03;;;28.83;;
35745;SDS011;21870;42.812;74.628;2023-03-21T04:59:04;47.72;;;27.48;;
35745;SDS011;21870;42.812;74.628;2023-03-21T05:01:33;39.72;;;25.80;;
35745;SDS011;21870;42.812;74.628;2023-03-21T05:03:59;37.33;;;25.85;;
35745;SDS011;21870;42.812;74.628;2023-03-21T05:06:26;50.15;;;26.63;;
35745;SDS011;21870;42.812;74.628;2023-03-21T05:08:53;40.05;;;27.02;;
35745;SDS011;21870;42.812;74.628;2023-03-21T05:11:30;50.53;;;27.08;;
35745;SDS011;21870;42.812;74.628;2023-03-21T05:13:57;45.33;;;26.85;;
35745;SDS011;21870;42.812;74.628;2023-03-21T05:16:24;46.85;;;26.58;;
35745;SDS011;21870;42.812;74.628;2023-03-21T05:18:55;53.88;;;28.67;;
35745;SDS011;21870;42.812;74.628;2023-03-21T05:21:23;46.20;;;28.88;;
35745;SDS011;21870;42.812;74.628;2023-03-21T05:23:53;45.20;;;29.15;;
35745;SDS011;21870;42.812;74.628;2023-03-21T05:26:22;46.15;;;29.25;;
35745;SDS011;21870;42.812;74.628;2023-03-21T05:28:48;52.63;;;30.42;;
35745;SDS011;21870;42.812;74.628;2023-03-21T05:31:18;44.45;;;27.70;;
35745;SDS011;21870;42.812;74.628;2023-03-21T05:33:46;43.33;;;26.88;;
35745;SDS011;21870;42.812;74.628;2023-03-21T05:36:12;40.03;;;27.83;;
35745;SDS011;21870;42.812;74.628;2023-03-21T05:38:40;63.28;;;30.85;;
35745;SDS011;21870;42.812;74.628;2023-03-21T05:41:15;56.50;;;30.83;;
35745;SDS011;21870;42.812;74.628;2023-03-21T05:43:42;47.17;;;28.35;;
35745;SDS011;21870;42.812;74.628;2023-03-21T05:46:09;42.00;;;28.45;;
35745;SDS011;21870;42.812;74.628;2023-03-21T05:48:36;56.03;;;30.50;;
35745;SDS011;21870;42.812;74.628;2023-03-21T05:51:02;54.00;;;29.05;;
35745;SDS011;21870;42.812;74.628;2023-03-21T05:53:30;55.67;;;30.25;;
35745;SDS011;21870;42.812;74.628;2023-03-21T05:55:56;44.83;;;29.45;;
35745;SDS011;21870;42.812;74.628;2023-03-21T05:58:22;53.67;;;30.90;;
35745;SDS011;21870;42.812;74.628;2023-03-21T06:00:48;49.22;;;30.23;;
35745;SDS011;21870;42.812;74.628;2023-03-21T06:03:15;58.58;;;30.77;;
35745;SDS011;21870;42.812;74.628;2023-03-21T06:05:41;50.30;;;31.88;;
35745;SDS011;21870;42.812;74.628;2023-03-21T06:08:07;41.15;;;30.63;;
35745;SDS011;21870;42.812;74.628;2023-03-21T06:10:33;53.58;;;33.10;;
35745;SDS011;21870;42.812;74.628;2023-03-21T06:12:59;40.67;;;30.27;;
35745;SDS011;21870;42.812;74.628;2023-03-21T06:15:26;50.15;;;32.35;;
35745;SDS011;21870;42.812;74.628;2023-03-21T06:17:52;50.58;;;35.83;;
35745;SDS011;21870;42.812;74.628;2023-03-21T06:20:18;63.10;;;41.17;;
35745;SDS011;21870;42.812;74.628;2023-03-21T06:22:44;64.22;;;42.22;;
35745;SDS011;21870;42.812;74.628;2023-03-21T06:25:10;55.63;;;41.78;;
35745;SDS011;21870;42.812;74.628;2023-03-21T06:27:36;55.40;;;41.72;;
35745;SDS011;21870;42.812;74.628;2023-03-21T06:30:03;66.95;;;42.55;;
35745;SDS011;21870;42.812;74.628;2023-03-21T06:32:30;61.00;;;43.42;;
35745;SDS011;21870;42.812;74.628;2023-03-21T06:34:56;59.13;;;44.75;;
35745;SDS011;21870;42.812;74.628;2023-03-21T06:37:22;60.80;;;44.63;;
35745;SDS011;21870;42.812;74.628;2023-03-21T06:39:50;60.47;;;45.78;;
35745;SDS011;21870;42.812;74.628;2023-03-21T06:42:17;62.03;;;45.33;;
35745;SDS011;21870;42.812;74.628;2023-03-21T06:44:43;68.30;;;49.42;;
35745;SDS011;21870;42.812;74.628;2023-03-21T06:47:09;67.47;;;48.65;;
35745;SDS011;21870;42.812;74.628;2023-03-21T06:49:35;65.95;;;46.15;;
35745;SDS011;21870;42.812;74.628;2023-03-21T06:52:01;71.00;;;48.38;;
35745;SDS011;21870;42.812;74.628;2023-03-21T06:54:28;75.95;;;53.63;;
35745;SDS011;21870;42.812;74.628;2023-03-21T06:56:55;78.70;;;56.45;;
35745;SDS011;21870;42.812;74.628;2023-03-21T06:59:21;88.55;;;59.55;;
35745;SDS011;21870;42.812;74.628;2023-03-21T07:01:47;88.28;;;58.97;;
35745;SDS011;21870;42.812;74.628;2023-03-21T07:04:13;72.88;;;55.67;;
35745;SDS011;21870;42.812;74.628;2023-03-21T07:06:39;76.57;;;58.33;;
35745;SDS011;21870;42.812;74.628;2023-03-21T07:09:05;83.07;;;57.38;;
35745;SDS011;21870;42.812;74.628;2023-03-21T07:11:32;84.93;;;54.53;;
35745;SDS011;21870;42.812;74.628;2023-03-21T07:13:59;82.47;;;56.50;;
35745;SDS011;21870;42.812;74.628;2023-03-21T07:16:25;66.53;;;53.22;;
35745;SDS011;21870;42.812;74.628;2023-03-21T07:18:52;71.55;;;55.00;;
35745;SDS011;21870;42.812;74.628;2023-03-21T07:21:18;69.47;;;55.15;;
35745;SDS011;21870;42.812;74.628;2023-03-21T07:23:44;67.90;;;54.75;;
35745;SDS011;21870;42.812;74.628;2023-03-21T07:26:11;76.68;;;54.65;;
35745;SDS011;21870;42.812;74.628;2023-03-21T07:28:37;78.47;;;54.25;;
35745;SDS011;21870;42.812;74.628;2023-03-21T07:31:04;68.88;;;54.63;;
35745;SDS011;21870;42.812;74.628;2023-03-21T07:33:31;67.15;;;56.03;;
35745;SDS011;21870;42.812;74.628;2023-03-21T07:35:58;66.75;;;51.35;;
35745;SDS011;21870;42.812;74.628;2023-03-21T07:38:24;69.63;;;50.90;;
35745;SDS011;21870;42.812;74.628;2023-03-21T07:40:51;59.42;;;48.05;;
35745;SDS011;21870;42.812;74.628;2023-03-21T07:43:18;68.32;;;50.72;;
35745;SDS011;21870;42.812;74.628;2023-03-21T07:45:44;64.55;;;51.40;;
35745;SDS011;21870;42.812;74.628;2023-03-21T07:48:11;66.22;;;50.95;;
35745;SDS011;21870;42.812;74.628;2023-03-21T07:50:38;57.65;;;50.50;;
35745;SDS011;21870;42.812;74.628;2023-03-21T07:53:05;67.25;;;47.88;;
35745;SDS011;21870;42.812;74.628;2023-03-21T07:55:31;62.03;;;46.05;;
35745;SDS011;21870;42.812;74.628;2023-03-21T07:58:01;48.53;;;43.10;;
35745;SDS011;21870;42.812;74.628;2023-03-21T08:00:28;46.25;;;39.85;;
35745;SDS011;21870;42.812;74.628;2023-03-21T08:02:55;46.22;;;37.92;;
35745;SDS011;21870;42.812;74.628;2023-03-21T08:05:40;50.85;;;37.17;;
35745;SDS011;21870;42.812;74.628;2023-03-21T08:08:06;66.53;;;39.50;;
35745;SDS011;21870;42.812;74.628;2023-03-21T08:10:32;73.53;;;37.58;;
35745;SDS011;21870;42.812;74.628;2023-03-21T08:12:59;52.00;;;36.15;;
35745;SDS011;21870;42.812;74.628;2023-03-21T08:15:25;48.42;;;34.35;;
35745;SDS011;21870;42.812;74.628;2023-03-21T08:17:51;43.55;;;33.97;;
35745;SDS011;21870;42.812;74.628;2023-03-21T08:20:18;53.28;;;32.97;;
35745;SDS011;21870;42.812;74.628;2023-03-21T08:22:45;50.55;;;33.53;;
35745;SDS011;21870;42.812;74.628;2023-03-21T08:25:13;46.63;;;31.50;;
35745;SDS011;21870;42.812;74.628;2023-03-21T08:27:42;47.65;;;32.70;;
35745;SDS011;21870;42.812;74.628;2023-03-21T08:30:10;39.53;;;30.55;;
35745;SDS011;21870;42.812;74.628;2023-03-21T08:32:38;48.60;;;31.55;;
35745;SDS011;21870;42.812;74.628;2023-03-21T08:35:07;41.05;;;30.83;;
35745;SDS011;21870;42.812;74.628;2023-03-21T08:37:36;43.88;;;32.50;;
35745;SDS011;21870;42.812;74.628;2023-03-21T08:40:07;45.20;;;29.50;;
35745;SDS011;21870;42.812;74.628;2023-03-21T08:42:36;42.78;;;30.50;;
35745;SDS011;21870;42.812;74.628;2023-03-21T08:45:03;42.45;;;29.40;;
35745;SDS011;21870;42.812;74.628;2023-03-21T08:47:30;35.63;;;28.02;;
35745;SDS011;21870;42.812;74.628;2023-03-21T08:49:57;33.20;;;28.20;;
35745;SDS011;21870;42.812;74.628;2023-03-21T08:52:23;36.45;;;27.85;;
35745;SDS011;21870;42.812;74.628;2023-03-21T08:54:51;37.22;;;27.35;;
35745;SDS011;21870;42.812;74.628;2023-03-21T08:57:18;33.60;;;26.35;;
35745;SDS011;21870;42.812;74.628;2023-03-21T08:59:44;36.85;;;25.77;;
35745;SDS011;21870;42.812;74.628;2023-03-21T09:02:12;44.88;;;27.83;;
35745;SDS011;21870;42.812;74.628;2023-03-21T09:04:40;39.95;;;25.27;;
35745;SDS011;21870;42.812;74.628;2023-03-21T09:07:07;36.00;;;23.30;;
35745;SDS011;21870;42.812;74.628;2023-03-21T09:09:36;31.33;;;25.92;;
35745;SDS011;21870;42.812;74.628;2023-03-21T09:12:03;30.52;;;24.60;;
35745;SDS011;21870;42.812;74.628;2023-03-21T09:14:29;30.65;;;22.83;;
35745;SDS011;21870;42.812;74.628;2023-03-21T09:16:56;30.60;;;22.75;;
35745;SDS011;21870;42.812;74.628;2023-03-21T09:19:22;37.35;;;22.50;;
35745;SDS011;21870;42.812;74.628;2023-03-21T09:21:48;35.53;;;23.35;;
35745;SDS011;21870;42.812;74.628;2023-03-21T09:24:14;31.55;;;23.00;;
35745;SDS011;21870;42.812;74.628;2023-03-21T09:26:42;33.55;;;22.10;;
35745;SDS011;21870;42.812;74.628;2023-03-21T09:29:08;28.63;;;21.95;;
35745;SDS011;21870;42.812;74.628;2023-03-21T09:31:36;36.15;;;24.20;;
35745;SDS011;21870;42.812;74.628;2023-03-21T09:34:04;29.60;;;21.80;;
35745;SDS011;21870;42.812;74.628;2023-03-21T09:36:30;28.65;;;22.52;;
35745;SDS011;21870;42.812;74.628;2023-03-21T09:38:59;37.35;;;23.27;;
35745;SDS011;21870;42.812;74.628;2023-03-21T09:41:36;34.45;;;24.65;;
35745;SDS011;21870;42.812;74.628;2023-03-21T09:47:49;30.67;;;21.67;;
35745;SDS011;21870;42.812;74.628;2023-03-21T09:50:06;28.23;;;20.60;;
35745;SDS011;21870;42.812;74.628;2023-03-21T09:55:22;29.27;;;21.50;;
35745;SDS011;21870;42.812;74.628;2023-03-21T09:58:00;28.17;;;21.75;;
35745;SDS011;21870;42.812;74.628;2023-03-21T10:00:36;34.10;;;21.45;;
35745;SDS011;21870;42.812;74.628;2023-03-21T10:03:11;34.20;;;21.95;;
35745;SDS011;21870;42.812;74.628;2023-03-21T10:05:42;28.17;;;21.02;;
35745;SDS011;21870;42.812;74.628;2023-03-21T10:08:22;24.48;;;19.50;;
35745;SDS011;21870;42.812;74.628;2023-03-21T10:10:57;27.52;;;20.73;;
35745;SDS011;21870;42.812;74.628;2023-03-21T10:13:28;32.72;;;19.95;;
35745;SDS011;21870;42.812;74.628;2023-03-21T10:16:15;28.08;;;18.85;;
35745;SDS011;21870;42.812;74.628;2023-03-21T10:19:10;33.25;;;19.80;;
35745;SDS011;21870;42.812;74.628;2023-03-21T10:21:39;26.33;;;20.35;;
35745;SDS011;21870;42.812;74.628;2023-03-21T10:24:18;28.40;;;20.15;;
35745;SDS011;21870;42.812;74.628;2023-03-21T10:26:47;35.80;;;21.10;;
35745;SDS011;21870;42.812;74.628;2023-03-21T10:29:15;25.65;;;18.70;;
35745;SDS011;21870;42.812;74.628;2023-03-21T10:31:43;32.05;;;18.52;;
35745;SDS011;21870;42.812;74.628;2023-03-21T10:34:16;23.13;;;19.48;;
35745;SDS011;21870;42.812;74.628;2023-03-21T10:36:47;26.85;;;18.73;;
35745;SDS011;21870;42.812;74.628;2023-03-21T10:39:22;33.97;;;18.92;;
35745;SDS011;21870;42.812;74.628;2023-03-21T10:41:52;29.13;;;18.05;;
35745;SDS011;21870;42.812;74.628;2023-03-21T10:44:19;24.50;;;17.75;;
35745;SDS011;21870;42.812;74.628;2023-03-21T10:46:50;23.67;;;19.52;;
35745;SDS011;21870;42.812;74.628;2023-03-21T10:49:17;27.95;;;18.85;;
35745;SDS011;21870;42.812;74.628;2023-03-21T10:51:46;24.60;;;20.58;;
35745;SDS011;21870;42.812;74.628;2023-03-21T10:54:17;26.83;;;23.35;;
35745;SDS011;21870;42.812;74.628;2023-03-21T10:56:52;24.42;;;20.90;;
35745;SDS011;21870;42.812;74.628;2023-03-21T10:59:38;31.00;;;21.13;;
35745;SDS011;21870;42.812;74.628;2023-03-21T11:02:18;23.75;;;20.02;;
35745;SDS011;21870;42.812;74.628;2023-03-21T11:05:05;29.33;;;19.63;;
35745;SDS011;21870;42.812;74.628;2023-03-21T11:07:41;23.80;;;18.95;;
35745;SDS011;21870;42.812;74.628;2023-03-21T11:10:13;24.55;;;17.50;;
35745;SDS011;21870;42.812;74.628;2023-03-21T11:12:45;26.65;;;16.45;;
35745;SDS011;21870;42.812;74.628;2023-03-21T11:15:20;28.02;;;17.95;;
35745;SDS011;21870;42.812;74.628;2023-03-21T11:17:54;29.58;;;17.23;;
35745;SDS011;21870;42.812;74.628;2023-03-21T11:20:22;25.50;;;18.00;;
35745;SDS011;21870;42.812;74.628;2023-03-21T11:22:48;36.38;;;17.88;;
35745;SDS011;21870;42.812;74.628;2023-03-21T11:28:18;21.27;;;17.20;;
35745;SDS011;21870;42.812;74.628;2023-03-21T11:30:49;24.20;;;17.13;;
35745;SDS011;21870;42.812;74.628;2023-03-21T11:33:16;28.35;;;19.52;;
35745;SDS011;21870;42.812;74.628;2023-03-21T11:35:43;25.98;;;18.35;;
35745;SDS011;21870;42.812;74.628;2023-03-21T11:38:38;23.83;;;19.00;;
35745;SDS011;21870;42.812;74.628;2023-03-21T11:41:05;34.22;;;19.88;;
35745;SDS011;21870;42.812;74.628;2023-03-21T11:43:36;23.13;;;18.67;;
35745;SDS011;21870;42.812;74.628;2023-03-21T11:46:05;23.58;;;19.33;;
35745;SDS011;21870;42.812;74.628;2023-03-21T11:48:43;23.27;;;18.95;;
35745;SDS011;21870;42.812;74.628;2023-03-21T11:54:00;30.20;;;18.10;;
35745;SDS011;21870;42.812;74.628;2023-03-21T11:56:41;23.08;;;19.17;;
35745;SDS011;21870;42.812;74.628;2023-03-21T11:59:55;21.02;;;18.52;;
35745;SDS011;21870;42.812;74.628;2023-03-21T12:24:07;34.63;;;18.80;;
35745;SDS011;21870;42.812;74.628;2023-03-21T12:29:13;27.80;;;19.33;;
35745;SDS011;21870;42.812;74.628;2023-03-21T12:34:58;26.65;;;19.05;;
35745;SDS011;21870;42.812;74.628;2023-03-21T12:40:35;26.58;;;20.02;;
35745;SDS011;21870;42.812;74.628;2023-03-21T12:46:12;27.25;;;20.30;;
35745;SDS011;21870;42.812;74.628;2023-03-21T12:51:35;27.85;;;20.63;;
35745;SDS011;21870;42.812;74.628;2023-03-21T13:05:06;32.67;;;22.63;;
35745;SDS011;21870;42.812;74.628;2023-03-21T13:07:50;35.70;;;23.35;;
35745;SDS011;21870;42.812;74.628;2023-03-21T13:10:22;38.75;;;23.13;;
35745;SDS011;21870;42.812;74.628;2023-03-21T13:27:03;36.58;;;24.27;;
35745;SDS011;21870;42.812;74.628;2023-03-21T13:29:40;40.53;;;27.55;;
35745;SDS011;21870;42.812;74.628;2023-03-21T13:37:34;41.20;;;24.58;;
35745;SDS011;21870;42.812;74.628;2023-03-21T13:40:05;46.83;;;23.83;;
35745;SDS011;21870;42.812;74.628;2023-03-21T13:42:44;28.02;;;21.77;;
35745;SDS011;21870;42.812;74.628;2023-03-21T13:45:22;31.88;;;20.15;;
35745;SDS011;21870;42.812;74.628;2023-03-21T13:48:29;27.58;;;21.05;;
35745;SDS011;21870;42.812;74.628;2023-03-21T13:51:05;32.85;;;20.98;;
35745;SDS011;21870;42.812;74.628;2023-03-21T13:53:35;29.40;;;21.80;;
35745;SDS011;21870;42.812;74.628;2023-03-21T14:03:55;29.98;;;20.75;;
35745;SDS011;21870;42.812;74.628;2023-03-21T14:06:29;26.95;;;23.00;;
35745;SDS011;21870;42.812;74.628;2023-03-21T14:08:59;29.02;;;20.77;;
35745;SDS011;21870;42.812;74.628;2023-03-21T14:11:26;31.83;;;25.60;;
35745;SDS011;21870;42.812;74.628;2023-03-21T14:13:56;40.30;;;24.83;;
35745;SDS011;21870;42.812;74.628;2023-03-21T14:16:24;31.13;;;22.08;;
35745;SDS011;21870;42.812;74.628;2023-03-21T14:18:55;44.47;;;25.98;;
35745;SDS011;21870;42.812;74.628;2023-03-21T14:21:30;39.00;;;27.35;;
35745;SDS011;21870;42.812;74.628;2023-03-21T14:24:02;38.13;;;27.05;;
35745;SDS011;21870;42.812;74.628;2023-03-21T14:26:31;32.15;;;26.10;;
35745;SDS011;21870;42.812;74.628;2023-03-21T14:29:01;36.17;;;24.25;;
35745;SDS011;21870;42.812;74.628;2023-03-21T14:31:31;34.40;;;23.88;;
35745;SDS011;21870;42.812;74.628;2023-03-21T14:33:58;36.88;;;25.40;;
35745;SDS011;21870;42.812;74.628;2023-03-21T14:36:28;31.15;;;24.80;;
35745;SDS011;21870;42.812;74.628;2023-03-21T14:39:29;35.40;;;23.92;;
35745;SDS011;21870;42.812;74.628;2023-03-21T14:41:51;36.72;;;27.65;;
35745;SDS011;21870;42.812;74.628;2023-03-21T14:44:21;37.35;;;26.48;;
35745;SDS011;21870;42.812;74.628;2023-03-21T14:46:58;35.88;;;26.70;;
35745;SDS011;21870;42.812;74.628;2023-03-21T14:49:41;47.15;;;29.80;;
35745;SDS011;21870;42.812;74.628;2023-03-21T14:52:12;47.33;;;34.88;;
35745;SDS011;21870;42.812;74.628;2023-03-21T14:54:46;45.53;;;37.08;;
35745;SDS011;21870;42.812;74.628;2023-03-21T14:57:14;62.67;;;39.20;;
35745;SDS011;21870;42.812;74.628;2023-03-21T14:59:46;52.88;;;38.30;;
35745;SDS011;21870;42.812;74.628;2023-03-21T15:02:20;62.45;;;39.72;;
35745;SDS011;21870;42.812;74.628;2023-03-21T15:04:53;51.65;;;37.50;;
35745;SDS011;21870;42.812;74.628;2023-03-21T15:09:56;56.20;;;39.67;;
35745;SDS011;21870;42.812;74.628;2023-03-21T15:12:31;47.33;;;36.65;;
35745;SDS011;21870;42.812;74.628;2023-03-21T15:14:58;47.28;;;37.42;;
35745;SDS011;21870;42.812;74.628;2023-03-21T15:17:25;47.20;;;37.60;;
35745;SDS011;21870;42.812;74.628;2023-03-21T15:19:53;46.35;;;36.60;;
35745;SDS011;21870;42.812;74.628;2023-03-21T15:22:30;51.22;;;40.05;;
35745;SDS011;21870;42.812;74.628;2023-03-21T15:25:02;49.90;;;40.40;;
35745;SDS011;21870;42.812;74.628;2023-03-21T15:27:32;67.95;;;44.33;;
35745;SDS011;21870;42.812;74.628;2023-03-21T15:30:02;61.15;;;43.70;;
35745;SDS011;21870;42.812;74.628;2023-03-21T15:32:29;64.47;;;49.97;;
35745;SDS011;21870;42.812;74.628;2023-03-21T15:35:05;71.85;;;48.25;;
35745;SDS011;21870;42.812;74.628;2023-03-21T15:37:37;69.88;;;51.45;;
35745;SDS011;21870;42.812;74.628;2023-03-21T15:40:15;62.05;;;49.33;;
35745;SDS011;21870;42.812;74.628;2023-03-21T15:42:45;66.82;;;50.88;;
35745;SDS011;21870;42.812;74.628;2023-03-21T15:50:20;57.60;;;43.55;;
35745;SDS011;21870;42.812;74.628;2023-03-21T15:52:50;60.55;;;43.60;;
35745;SDS011;21870;42.812;74.628;2023-03-21T15:55:19;60.15;;;40.85;;
35745;SDS011;21870;42.812;74.628;2023-03-21T15:57:53;50.17;;;37.63;;
35745;SDS011;21870;42.812;74.628;2023-03-21T16:00:36;60.78;;;38.25;;
35745;SDS011;21870;42.812;74.628;2023-03-21T16:03:32;55.30;;;37.13;;
35745;SDS011;21870;42.812;74.628;2023-03-21T16:08:42;49.55;;;35.20;;
35745;SDS011;21870;42.812;74.628;2023-03-21T16:13:53;47.85;;;36.22;;
35745;SDS011;21870;42.812;74.628;2023-03-21T16:16:21;48.10;;;36.25;;
35745;SDS011;21870;42.812;74.628;2023-03-21T16:18:50;48.35;;;35.70;;
35745;SDS011;21870;42.812;74.628;2023-03-21T16:21:17;45.17;;;35.17;;
35745;SDS011;21870;42.812;74.628;2023-03-21T16:23:45;51.58;;;37.05;;
35745;SDS011;21870;42.812;74.628;2023-03-21T16:26:13;46.80;;;35.13;;
35745;SDS011;21870;42.812;74.628;2023-03-21T16:28:41;49.78;;;35.22;;
35745;SDS011;21870;42.812;74.628;2023-03-21T16:31:10;43.15;;;34.65;;
35745;SDS011;21870;42.812;74.628;2023-03-21T16:33:42;50.35;;;36.70;;
35745;SDS011;21870;42.812;74.628;2023-03-21T16:36:13;48.97;;;35.33;;
35745;SDS011;21870;42.812;74.628;2023-03-21T16:38:43;64.80;;;54.80;;
35745;SDS011;21870;42.812;74.628;2023-03-21T16:41:14;52.92;;;37.00;;
35745;SDS011;21870;42.812;74.628;2023-03-21T16:43:41;46.95;;;35.50;;
35745;SDS011;21870;42.812;74.628;2023-03-21T16:46:11;43.25;;;33.78;;